Decatur Airport
KDEC : now visible

Airfield :











YOU CAN JOIN US ON...

 
LOGIN :

Register | Disclaimer

   EN    FR    IT 

 









Legend :    VFR   Marginal VFR   IFR   Intensive IFR   Very Intensive IFR
Visi :
Ceiling :
>= 8 km
>= 3000ft
5 to 8 km
1000 to 3000 ft
1500m to 5 km
500 to 1000 ft
800 to 1500m
200 to 500 ft
< 800m
< 200 ft
Symbols :   Thunderstorms  Fog  Heavy snow  Heavy precipitations  Wind > 20 kt






- Airport Elevation : 682 ft
- IATA code : DEC


KDEC - Decatur

CURRENT METAR :
  • 011754Z VRB04KT 10SM SCT032 11/03 A3007 RMK AO2 SLP186 T01110028 10117 20006 58009

EXPIRED METARs :
  • 011654Z VRB03KT 10SM CLR 11/03 A3010 RMK AO2 SLP193 T01060028
  • 011554Z 36004KT 10SM FEW020 08/02 A3010 RMK AO2 SLP195 T00830017

TAF KDEC
Valid from the 01 at 18:00 until the 02 at 18:00 UTC


011737Z 0118/0218 VRB04KT P6SM SCT020
FM020000 VRB04KT P6SM SKC
FM021000 15008KT P6SM BKN250



MET'MAP, your aeronautical weather chart ! - Copyright ORBIFLY December 2007 - Disclaimer

ORBIFLY MET'MAP TEAM :

Programming & Development : Alexandra Zaïnal
Concept & original design : Baudouin d'Aumeries
Assistance for programming : Marc-Olivier Méhu
Technical & hardware support : Manuel Goepfert

Contact : metmap@orbifly.com




SOURCES & CREDITS :

   NOAA       Earth
Advisory